createdAt,value
2023-04-20T00:01:32.597Z,4.97
2023-04-20T00:03:59.623Z,4.98
2023-04-20T00:06:29.901Z,4.97
2023-04-20T00:08:56.948Z,4.94
2023-04-20T00:11:23.911Z,4.98
2023-04-20T00:13:50.863Z,4.95
2023-04-20T00:16:18.854Z,5.01
2023-04-20T00:18:49.654Z,4.98
2023-04-20T00:21:17.078Z,5.03
2023-04-20T00:23:43.939Z,5.01
2023-04-20T00:26:11.315Z,5.00
2023-04-20T00:28:38.174Z,4.98
2023-04-20T00:31:06.669Z,5.01
2023-04-20T00:33:33.618Z,4.99
2023-04-20T00:36:00.544Z,5.00
2023-04-20T00:38:28.086Z,4.99
2023-04-20T00:40:57.964Z,5.01
2023-04-20T00:43:25.013Z,4.99
2023-04-20T00:45:52.572Z,4.97
2023-04-20T00:48:20.813Z,4.96
2023-04-20T00:50:49.660Z,4.97
2023-04-20T00:53:17.640Z,4.94
2023-04-20T00:55:45.663Z,4.96
2023-04-20T00:58:13.033Z,4.91
2023-04-20T01:00:40.859Z,4.89
2023-04-20T01:03:09.121Z,4.91
2023-04-20T01:05:36.439Z,4.85
2023-04-20T01:08:03.534Z,4.82
2023-04-20T01:10:30.842Z,4.84
2023-04-20T01:12:57.832Z,4.83
2023-04-20T01:15:24.864Z,4.81
2023-04-20T01:17:52.575Z,4.76
2023-04-20T01:20:20.655Z,4.75
2023-04-20T01:22:52.207Z,4.69
2023-04-20T01:25:19.110Z,4.66
2023-04-20T01:27:46.105Z,4.67
2023-04-20T01:30:13.901Z,4.62
2023-04-20T01:32:41.897Z,4.62
2023-04-20T01:35:10.182Z,4.58
2023-04-20T01:37:37.783Z,4.59
2023-04-20T01:40:06.604Z,4.57
2023-04-20T01:42:33.789Z,4.53
2023-04-20T01:45:00.795Z,4.54
2023-04-20T01:47:27.724Z,4.51
2023-04-20T01:49:54.767Z,4.49
2023-04-20T01:52:21.670Z,4.48
2023-04-20T01:54:48.557Z,4.42
2023-04-20T01:57:15.749Z,4.41
2023-04-20T01:59:42.989Z,4.39
2023-04-20T02:02:10.043Z,4.34
2023-04-20T02:04:36.972Z,4.28
2023-04-20T02:07:03.847Z,4.27
2023-04-20T02:09:31.113Z,4.26
2023-04-20T02:11:58.358Z,4.22
2023-04-20T02:14:25.487Z,4.19
2023-04-20T02:16:53.636Z,4.19
2023-04-20T02:19:21.789Z,4.17
2023-04-20T02:21:48.692Z,4.16
2023-04-20T02:24:15.813Z,4.14
2023-04-20T02:26:43.004Z,4.17
2023-04-20T02:29:09.880Z,4.19
2023-04-20T02:31:36.828Z,4.19
2023-04-20T02:34:06.335Z,4.19
2023-04-20T02:36:33.472Z,4.21
2023-04-20T02:39:00.453Z,4.19
2023-04-20T02:41:27.396Z,4.17
2023-04-20T02:43:54.266Z,4.15
2023-04-20T02:46:21.195Z,4.12
2023-04-20T02:48:48.199Z,4.10
2023-04-20T02:51:15.489Z,4.10
2023-04-20T02:53:42.358Z,4.08
2023-04-20T02:56:09.378Z,4.05
2023-04-20T02:58:36.397Z,4.04
2023-04-20T03:01:04.452Z,4.01
2023-04-20T03:03:32.091Z,3.99
2023-04-20T03:05:59.231Z,3.96
2023-04-20T03:08:26.396Z,3.93
2023-04-20T03:10:53.309Z,3.93
2023-04-20T03:13:20.241Z,3.90
2023-04-20T03:15:47.485Z,3.88
2023-04-20T03:18:14.406Z,3.86
2023-04-20T03:20:41.644Z,3.84
2023-04-20T03:23:08.578Z,3.82
2023-04-20T03:25:35.502Z,3.77
2023-04-20T03:28:02.437Z,3.77
2023-04-20T03:30:29.500Z,3.74
2023-04-20T03:32:56.475Z,3.70
2023-04-20T03:35:23.740Z,3.68
2023-04-20T03:37:50.636Z,3.65
2023-04-20T03:40:17.554Z,3.63
2023-04-20T03:42:44.582Z,3.59
2023-04-20T03:45:12.255Z,3.60
2023-04-20T03:47:39.681Z,3.57
2023-04-20T03:50:07.367Z,3.57
2023-04-20T03:52:34.436Z,3.58
2023-04-20T03:55:01.300Z,3.64
2023-04-20T03:57:28.254Z,3.67
2023-04-20T03:59:55.484Z,3.70
2023-04-20T04:02:22.956Z,3.70
2023-04-20T04:04:50.360Z,3.74
2023-04-20T04:07:17.297Z,3.73
2023-04-20T04:09:44.191Z,3.79
2023-04-20T04:12:11.465Z,3.79
2023-04-20T04:14:38.409Z,3.82
2023-04-20T04:17:05.706Z,3.83
2023-04-20T04:19:32.612Z,3.83
2023-04-20T04:21:59.472Z,3.88
2023-04-20T04:24:27.040Z,3.88
2023-04-20T04:26:58.727Z,3.89
2023-04-20T04:29:26.108Z,3.88
2023-04-20T04:31:54.728Z,3.89
2023-04-20T04:34:24.271Z,3.88
2023-04-20T04:36:51.487Z,3.87
2023-04-20T04:39:18.614Z,3.89
2023-04-20T04:41:46.440Z,3.91
2023-04-20T04:44:13.292Z,3.90
2023-04-20T04:46:40.257Z,3.90
2023-04-20T04:49:08.295Z,3.90
2023-04-20T04:51:35.429Z,3.85
2023-04-20T04:54:02.566Z,3.87
2023-04-20T04:56:29.748Z,3.86
2023-04-20T04:58:56.712Z,3.89
2023-04-20T05:01:23.997Z,3.90
2023-04-20T05:03:51.776Z,3.91
2023-04-20T05:06:18.926Z,3.93
2023-04-20T05:08:46.834Z,3.94
2023-04-20T05:11:13.738Z,3.96
2023-04-20T05:13:40.708Z,3.97
2023-04-20T05:16:08.189Z,4.00
2023-04-20T05:18:35.403Z,3.99
2023-04-20T05:21:02.333Z,4.00
2023-04-20T05:23:29.246Z,3.99
2023-04-20T05:25:56.548Z,4.02
2023-04-20T05:28:23.434Z,4.05
2023-04-20T05:30:50.502Z,4.02
2023-04-20T05:33:17.699Z,4.04
2023-04-20T05:35:44.569Z,4.03
2023-04-20T05:38:11.440Z,4.08
2023-04-20T05:40:38.443Z,4.09
2023-04-20T05:43:05.331Z,4.08
2023-04-20T05:45:34.551Z,4.16
2023-04-20T05:48:01.545Z,4.34
2023-04-20T05:50:28.677Z,4.63
2023-04-20T05:52:55.657Z,5.07
2023-04-20T05:55:23.208Z,5.49
2023-04-20T05:57:52.453Z,5.80
2023-04-20T06:00:21.167Z,5.93
2023-04-20T06:02:49.166Z,6.01
2023-04-20T06:05:16.504Z,6.02
2023-04-20T06:07:43.532Z,6.01
2023-04-20T06:10:11.069Z,5.95
2023-04-20T06:12:38.422Z,5.91
2023-04-20T06:15:11.126Z,5.92
2023-04-20T06:17:41.386Z,5.89
2023-04-20T06:20:10.793Z,5.93
2023-04-20T06:22:44.677Z,6.02
2023-04-20T06:25:11.784Z,6.30
2023-04-20T06:27:38.686Z,6.61
2023-04-20T06:30:06.958Z,6.71
2023-04-20T06:32:34.119Z,6.72
2023-04-20T06:35:01.176Z,6.86
2023-04-20T06:37:28.517Z,6.99
2023-04-20T06:39:55.510Z,7.14
2023-04-20T06:42:22.840Z,7.25
2023-04-20T06:44:49.773Z,7.32
2023-04-20T06:47:16.867Z,7.33
2023-04-20T06:49:43.819Z,7.39
2023-04-20T06:52:10.741Z,7.48
2023-04-20T06:54:37.967Z,7.61
2023-04-20T06:57:04.865Z,7.75
2023-04-20T06:59:31.810Z,7.88
2023-04-20T07:01:58.815Z,8.08
2023-04-20T07:04:26.398Z,8.22
2023-04-20T07:06:54.349Z,8.40
2023-04-20T07:09:23.232Z,8.52
2023-04-20T07:11:50.404Z,8.57
2023-04-20T07:14:17.364Z,8.73
2023-04-20T07:16:44.377Z,8.78
2023-04-20T07:19:11.403Z,8.79
2023-04-20T07:21:38.387Z,8.90
2023-04-20T07:24:06.214Z,9.00
2023-04-20T07:26:33.074Z,9.16
2023-04-20T07:28:59.963Z,9.18
2023-04-20T07:31:26.890Z,9.28
2023-04-20T07:33:54.006Z,9.33
2023-04-20T07:36:22.788Z,9.45
2023-04-20T07:38:50.171Z,9.54
2023-04-20T07:41:17.253Z,9.69
2023-04-20T07:43:45.308Z,9.83
2023-04-20T07:46:21.389Z,9.92
2023-04-20T07:48:49.010Z,10.06
2023-04-20T07:51:16.095Z,10.18
2023-04-20T07:53:43.769Z,10.25
2023-04-20T07:56:10.910Z,10.35
2023-04-20T07:58:39.369Z,10.52
2023-04-20T08:01:06.521Z,10.72
2023-04-20T08:03:34.236Z,10.84
2023-04-20T08:06:01.493Z,11.03
2023-04-20T08:08:29.652Z,11.07
2023-04-20T08:10:58.930Z,11.29
2023-04-20T08:13:26.377Z,11.52
2023-04-20T08:15:53.460Z,11.47
2023-04-20T08:18:21.383Z,11.43
2023-04-20T08:20:48.572Z,11.59
2023-04-20T08:23:15.495Z,11.77
2023-04-20T08:25:42.893Z,11.97
2023-04-20T08:28:19.196Z,12.09
2023-04-20T08:30:47.248Z,12.29
2023-04-20T08:33:14.299Z,12.46
2023-04-20T08:35:41.458Z,12.47
2023-04-20T08:38:08.320Z,12.58
2023-04-20T08:40:37.359Z,12.53
2023-04-20T08:43:04.522Z,12.51
2023-04-20T08:45:31.858Z,12.38
2023-04-20T08:48:03.188Z,12.60
2023-04-20T08:50:30.841Z,12.63
2023-04-20T08:52:58.250Z,12.74
2023-04-20T08:55:25.307Z,12.65
2023-04-20T08:57:52.357Z,12.55
2023-04-20T09:00:19.650Z,12.61
2023-04-20T09:02:55.804Z,12.70
2023-04-20T09:05:31.830Z,12.75
2023-04-20T09:08:01.363Z,12.61
2023-04-20T09:10:44.185Z,12.57
2023-04-20T09:13:23.070Z,12.45
2023-04-20T09:15:50.327Z,12.43
2023-04-20T09:18:17.910Z,12.54
2023-04-20T09:20:44.910Z,12.61
2023-04-20T09:23:18.063Z,12.63
2023-04-20T09:25:51.045Z,12.65
2023-04-20T09:28:18.546Z,12.63
2023-04-20T09:30:48.139Z,12.64
2023-04-20T09:33:15.938Z,12.62
2023-04-20T09:35:45.476Z,12.63
2023-04-20T09:38:17.112Z,12.56
2023-04-20T09:40:44.053Z,12.57
2023-04-20T09:43:18.815Z,12.61
2023-04-20T09:45:46.038Z,12.66
2023-04-20T09:48:19.466Z,12.69
2023-04-20T09:50:49.768Z,12.75
2023-04-20T09:53:18.825Z,12.76
2023-04-20T09:55:51.989Z,12.72
2023-04-20T09:58:24.009Z,12.72
2023-04-20T10:00:51.454Z,12.79
2023-04-20T10:03:22.290Z,12.82
2023-04-20T10:05:51.153Z,12.76
2023-04-20T10:08:19.354Z,12.82
2023-04-20T10:10:51.175Z,12.90
2023-04-20T10:13:20.692Z,12.94
2023-04-20T10:15:47.842Z,12.84
2023-04-20T10:18:24.169Z,12.93
2023-04-20T10:20:52.719Z,12.98
2023-04-20T10:23:20.274Z,13.05
2023-04-20T10:25:59.639Z,13.07
2023-04-20T10:28:42.206Z,13.05
2023-04-20T10:31:13.471Z,13.03
2023-04-20T10:33:56.759Z,13.05
2023-04-20T10:36:44.748Z,12.89
2023-04-20T10:39:19.308Z,12.90
2023-04-20T10:42:01.638Z,12.91
2023-04-20T10:44:28.788Z,12.98
2023-04-20T10:46:56.497Z,13.09
2023-04-20T10:49:29.708Z,13.20
2023-04-20T10:51:57.078Z,13.34
2023-04-20T10:54:24.191Z,13.41
2023-04-20T10:56:53.193Z,13.41
2023-04-20T10:59:23.915Z,13.45
2023-04-20T11:01:52.924Z,13.56
2023-04-20T11:04:34.298Z,13.59
2023-04-20T11:07:10.150Z,13.62
2023-04-20T11:09:38.681Z,13.63
2023-04-20T11:12:15.039Z,13.64
2023-04-20T11:14:58.993Z,13.65
2023-04-20T11:17:34.788Z,13.64
2023-04-20T11:20:09.228Z,13.70
2023-04-20T11:22:36.153Z,13.68
2023-04-20T11:25:08.162Z,13.73
2023-04-20T11:27:36.678Z,13.83
2023-04-20T11:30:10.150Z,13.97
2023-04-20T11:32:38.496Z,14.07
2023-04-20T11:35:09.613Z,14.11
2023-04-20T11:37:53.956Z,14.15
2023-04-20T11:40:21.490Z,14.01
2023-04-20T11:42:48.777Z,13.95
2023-04-20T11:45:16.067Z,13.93
2023-04-20T11:47:42.986Z,13.99
2023-04-20T11:50:13.210Z,14.12
2023-04-20T11:52:40.181Z,14.21
2023-04-20T11:55:07.721Z,14.36
2023-04-20T11:57:34.882Z,14.41
2023-04-20T12:00:01.846Z,14.43
2023-04-20T12:02:28.846Z,14.50
2023-04-20T12:04:56.060Z,14.48
2023-04-20T12:07:23.564Z,14.54
2023-04-20T12:09:50.504Z,14.56
2023-04-20T12:12:17.440Z,14.62
2023-04-20T12:14:44.328Z,14.67
2023-04-20T12:17:11.683Z,14.65
2023-04-20T12:19:38.663Z,14.58
2023-04-20T12:22:05.582Z,14.71
2023-04-20T12:24:32.693Z,14.67
2023-04-20T12:26:59.787Z,14.67
2023-04-20T12:29:26.707Z,14.63
2023-04-20T12:31:53.764Z,14.69
2023-04-20T12:34:21.057Z,14.80
2023-04-20T12:36:48.196Z,14.87
2023-04-20T12:39:15.740Z,14.97
2023-04-20T12:41:42.674Z,15.02
2023-04-20T12:44:11.549Z,15.04
2023-04-20T12:46:38.546Z,14.91
2023-04-20T12:49:05.741Z,14.93
2023-04-20T12:51:32.657Z,15.01
2023-04-20T12:53:59.649Z,15.12
2023-04-20T12:56:26.834Z,15.15
2023-04-20T12:58:54.473Z,15.20
2023-04-20T13:01:21.594Z,15.19
2023-04-20T13:03:52.294Z,15.24
2023-04-20T13:06:19.605Z,15.23
2023-04-20T13:08:46.781Z,15.22
2023-04-20T13:11:15.728Z,15.30
2023-04-20T13:13:42.793Z,15.28
2023-04-20T13:16:10.368Z,15.20
2023-04-20T13:18:38.273Z,15.15
2023-04-20T13:21:05.696Z,15.19
2023-04-20T13:23:32.767Z,15.23
2023-04-20T13:26:01.858Z,15.19
2023-04-20T13:28:28.841Z,15.13
2023-04-20T13:30:57.707Z,15.10
2023-04-20T13:33:24.997Z,15.13
2023-04-20T13:35:52.259Z,15.13
2023-04-20T13:38:19.173Z,15.20
2023-04-20T13:40:47.553Z,15.20
2023-04-20T13:43:14.778Z,15.30
2023-04-20T13:45:41.815Z,15.29
2023-04-20T13:48:09.378Z,15.28
2023-04-20T13:50:36.373Z,15.13
2023-04-20T13:53:03.775Z,15.12
2023-04-20T13:55:32.123Z,15.23
2023-04-20T13:57:59.127Z,15.26
2023-04-20T14:00:26.403Z,15.22
2023-04-20T14:02:53.428Z,15.13
2023-04-20T14:05:20.785Z,15.22
2023-04-20T14:07:47.680Z,15.27
2023-04-20T14:10:14.599Z,15.23
2023-04-20T14:12:41.648Z,15.12
2023-04-20T14:15:09.307Z,15.18
2023-04-20T14:17:36.225Z,15.22
2023-04-20T14:20:04.463Z,15.20
2023-04-20T14:22:36.217Z,15.20
2023-04-20T14:25:07.346Z,15.18
2023-04-20T14:27:34.377Z,15.14
2023-04-20T14:30:01.543Z,15.06
2023-04-20T14:32:30.912Z,14.95
2023-04-20T14:34:57.959Z,14.98
2023-04-20T14:37:27.316Z,14.91
2023-04-20T14:39:54.406Z,14.92
2023-04-20T14:42:21.992Z,14.95
2023-04-20T14:44:49.337Z,14.97
2023-04-20T14:47:16.653Z,14.99
2023-04-20T14:49:45.004Z,14.93
2023-04-20T14:52:11.987Z,14.89
2023-04-20T14:54:39.181Z,14.85
2023-04-20T14:57:06.221Z,14.85
2023-04-20T14:59:33.924Z,14.86
2023-04-20T15:02:03.382Z,14.92
2023-04-20T15:04:31.036Z,14.91
2023-04-20T15:06:58.598Z,14.95
2023-04-20T15:09:26.077Z,14.98
2023-04-20T15:11:53.318Z,14.88
2023-04-20T15:14:20.865Z,14.80
2023-04-20T15:16:47.942Z,14.76
2023-04-20T15:19:14.825Z,14.66
2023-04-20T15:21:42.799Z,14.50
2023-04-20T15:24:11.543Z,14.58
2023-04-20T15:26:38.400Z,14.54
2023-04-20T15:29:05.612Z,14.55
2023-04-20T15:31:32.623Z,14.61
2023-04-20T15:34:00.583Z,14.58
2023-04-20T15:36:27.710Z,14.60
2023-04-20T15:38:56.177Z,14.42
2023-04-20T15:41:24.566Z,14.33
2023-04-20T15:43:51.600Z,14.31
2023-04-20T15:46:19.031Z,14.20
2023-04-20T15:48:45.944Z,14.17
2023-04-20T15:51:13.876Z,14.11
2023-04-20T15:53:40.760Z,14.03
2023-04-20T15:56:07.966Z,14.07
2023-04-20T15:58:35.208Z,14.08
2023-04-20T16:01:02.172Z,14.12
2023-04-20T16:03:29.217Z,14.08
2023-04-20T16:05:56.196Z,14.17
2023-04-20T16:08:23.274Z,14.08
2023-04-20T16:10:50.217Z,14.03
2023-04-20T16:13:17.130Z,14.01
2023-04-20T16:15:44.126Z,13.93
2023-04-20T16:18:11.238Z,13.87
2023-04-20T16:20:39.457Z,13.82
2023-04-20T16:23:08.274Z,13.87
2023-04-20T16:25:35.479Z,13.76
2023-04-20T16:28:02.976Z,13.72
2023-04-20T16:30:30.384Z,13.73
2023-04-20T16:32:59.943Z,13.75
2023-04-20T16:35:27.190Z,13.76
2023-04-20T16:37:54.594Z,13.75
2023-04-20T16:40:21.553Z,13.76
2023-04-20T16:42:48.628Z,13.77
2023-04-20T16:45:16.425Z,13.71
2023-04-20T16:47:43.431Z,13.63
2023-04-20T16:50:12.749Z,13.55
2023-04-20T16:52:39.723Z,13.55
2023-04-20T16:55:07.501Z,13.46
2023-04-20T16:57:34.408Z,13.47
2023-04-20T17:00:01.328Z,13.39
2023-04-20T17:02:33.133Z,13.31
2023-04-20T17:05:00.780Z,13.25
2023-04-20T17:07:28.749Z,13.32
2023-04-20T17:09:56.023Z,13.27
2023-04-20T17:12:23.330Z,13.23
2023-04-20T17:14:50.282Z,13.22
2023-04-20T17:17:17.159Z,13.22
2023-04-20T17:19:44.059Z,13.21
2023-04-20T17:22:11.325Z,13.19
2023-04-20T17:24:38.183Z,13.09
2023-04-20T17:27:05.125Z,13.03
2023-04-20T17:29:36.265Z,13.01
2023-04-20T17:32:03.495Z,12.93
2023-04-20T17:34:30.550Z,12.92
2023-04-20T17:36:57.405Z,12.93
2023-04-20T17:39:24.346Z,12.92
2023-04-20T17:41:51.220Z,12.86
2023-04-20T17:44:18.510Z,12.84
2023-04-20T17:46:45.641Z,12.66
2023-04-20T17:49:12.520Z,12.66
2023-04-20T17:51:39.720Z,12.54
2023-04-20T17:54:07.949Z,12.54
2023-04-20T17:56:34.952Z,12.45
2023-04-20T17:59:01.845Z,12.40
2023-04-20T18:01:28.857Z,12.35
2023-04-20T18:03:56.056Z,12.31
2023-04-20T18:06:23.135Z,12.26
2023-04-20T18:08:50.447Z,12.24
2023-04-20T18:11:17.348Z,12.21
2023-04-20T18:13:44.859Z,12.17
2023-04-20T18:16:11.971Z,12.13
2023-04-20T18:18:38.954Z,12.11
2023-04-20T18:21:05.947Z,12.06
2023-04-20T18:23:33.510Z,12.00
2023-04-20T18:26:00.446Z,11.93
2023-04-20T18:28:27.710Z,11.95
2023-04-20T18:30:57.687Z,11.98
2023-04-20T18:33:26.168Z,11.98
2023-04-20T18:35:53.077Z,11.98
2023-04-20T18:38:20.114Z,12.01
2023-04-20T18:40:47.262Z,11.97
2023-04-20T18:43:14.325Z,11.92
2023-04-20T18:45:41.470Z,11.89
2023-04-20T18:48:08.417Z,11.85
2023-04-20T18:50:35.781Z,11.83
2023-04-20T18:53:05.218Z,11.74
2023-04-20T18:55:32.490Z,11.71
2023-04-20T18:58:00.166Z,11.68
2023-04-20T19:00:27.505Z,11.61
2023-04-20T19:02:54.599Z,11.57
2023-04-20T19:05:22.043Z,11.60
2023-04-20T19:07:49.073Z,11.50
2023-04-20T19:10:16.112Z,11.48
2023-04-20T19:12:43.305Z,11.38
2023-04-20T19:15:10.932Z,11.30
2023-04-20T19:17:38.260Z,11.27
2023-04-20T19:20:06.370Z,11.23
2023-04-20T19:22:33.408Z,11.17
2023-04-20T19:25:01.076Z,11.07
2023-04-20T19:27:28.007Z,11.04
2023-04-20T19:29:55.117Z,11.00
2023-04-20T19:32:22.084Z,11.04
2023-04-20T19:34:49.012Z,10.99
2023-04-20T19:37:16.264Z,10.95
2023-04-20T19:39:43.211Z,10.96
2023-04-20T19:42:10.123Z,10.90
2023-04-20T19:44:37.002Z,10.83
2023-04-20T19:47:04.414Z,10.80
2023-04-20T19:49:31.342Z,10.77
2023-04-20T19:51:58.400Z,10.68
2023-04-20T19:54:25.421Z,10.65
2023-04-20T19:56:52.845Z,10.62
2023-04-20T19:59:20.122Z,10.65
2023-04-20T20:01:48.877Z,10.59
2023-04-20T20:04:17.654Z,10.59
2023-04-20T20:06:48.724Z,10.48
2023-04-20T20:09:15.843Z,10.47
2023-04-20T20:11:48.776Z,10.43
2023-04-20T20:14:19.479Z,10.37
2023-04-20T20:16:46.443Z,10.39
2023-04-20T20:19:14.323Z,10.27
2023-04-20T20:21:41.276Z,10.19
2023-04-20T20:24:08.296Z,10.03
2023-04-20T20:26:35.408Z,10.02
2023-04-20T20:29:02.605Z,10.02
2023-04-20T20:31:29.487Z,10.01
2023-04-20T20:33:56.746Z,9.99
2023-04-20T20:36:24.189Z,9.88
2023-04-20T20:38:51.681Z,9.87
2023-04-20T20:41:22.312Z,9.77
2023-04-20T20:43:50.644Z,9.77
2023-04-20T20:46:17.671Z,9.76
2023-04-20T20:48:44.980Z,9.68
2023-04-20T20:51:12.343Z,9.69
2023-04-20T20:53:39.334Z,9.69
2023-04-20T20:56:06.812Z,9.68
2023-04-20T20:58:33.726Z,9.60
2023-04-20T21:01:00.839Z,9.61
2023-04-20T21:03:27.925Z,9.56
2023-04-20T21:05:55.161Z,9.50
2023-04-20T21:08:22.208Z,9.46
2023-04-20T21:10:49.235Z,9.47
2023-04-20T21:13:16.318Z,9.42
2023-04-20T21:15:43.194Z,9.44
2023-04-20T21:18:10.339Z,9.30
2023-04-20T21:20:37.328Z,9.31
2023-04-20T21:23:04.300Z,9.27
2023-04-20T21:25:31.580Z,9.26
2023-04-20T21:27:58.527Z,9.21
2023-04-20T21:30:25.573Z,9.16
2023-04-20T21:32:52.823Z,9.23
2023-04-20T21:35:19.859Z,9.24
2023-04-20T21:37:46.707Z,9.21
2023-04-20T21:40:13.793Z,9.16
2023-04-20T21:42:40.692Z,9.10
2023-04-20T21:45:08.368Z,9.05
2023-04-20T21:47:35.310Z,8.91
2023-04-20T21:50:02.290Z,8.86
2023-04-20T21:52:29.565Z,8.92
2023-04-20T21:54:56.550Z,8.91
2023-04-20T21:57:23.444Z,8.94
2023-04-20T21:59:50.486Z,8.97
2023-04-20T22:02:17.668Z,8.93
2023-04-20T22:04:45.920Z,8.87
2023-04-20T22:07:13.021Z,8.91
2023-04-20T22:09:40.089Z,8.88
2023-04-20T22:12:09.278Z,8.89
2023-04-20T22:14:36.252Z,8.87
2023-04-20T22:17:03.174Z,8.82
2023-04-20T22:19:30.036Z,8.74
2023-04-20T22:21:57.082Z,8.66
2023-04-20T22:24:24.403Z,8.61
2023-04-20T22:26:51.257Z,8.49
2023-04-20T22:29:21.703Z,8.39
2023-04-20T22:31:49.428Z,8.34
2023-04-20T22:34:16.364Z,8.24
2023-04-20T22:36:43.264Z,8.16
2023-04-20T22:39:10.413Z,8.15
2023-04-20T22:41:37.287Z,8.12
2023-04-20T22:44:04.780Z,8.09
2023-04-20T22:46:31.708Z,8.16
2023-04-20T22:48:58.670Z,8.18
2023-04-20T22:51:26.190Z,8.19
2023-04-20T22:53:53.116Z,8.25
2023-04-20T22:56:20.184Z,8.26
2023-04-20T22:58:47.042Z,8.31
2023-04-20T23:01:13.969Z,8.34
2023-04-20T23:03:41.469Z,8.34
2023-04-20T23:06:08.440Z,8.34
2023-04-20T23:08:35.612Z,8.33
2023-04-20T23:11:02.555Z,8.31
2023-04-20T23:13:29.469Z,8.31
2023-04-20T23:15:56.443Z,8.37
2023-04-20T23:18:23.352Z,8.38
2023-04-20T23:20:50.233Z,8.41
2023-04-20T23:23:17.485Z,8.40
2023-04-20T23:25:44.378Z,8.39
2023-04-20T23:28:11.373Z,8.42
2023-04-20T23:30:38.257Z,8.36
2023-04-20T23:33:05.271Z,8.33
2023-04-20T23:35:32.618Z,8.35
2023-04-20T23:37:59.607Z,8.37
2023-04-20T23:40:26.727Z,8.42
2023-04-20T23:42:55.319Z,8.40
2023-04-20T23:45:22.916Z,8.39
2023-04-20T23:47:50.097Z,8.43
2023-04-20T23:50:17.046Z,8.46
2023-04-20T23:52:44.118Z,8.41
2023-04-20T23:55:11.117Z,8.42
2023-04-20T23:57:38.073Z,8.43
